SEH221 LIPH-EDDS
Flight info
| Callsign | SEH221 |
|---|---|
| Flight time | 1h 10m |
| Altitude | 18000 |
| Route | VIC L613 ARGAX Y170 ROMIR T125 REUTL REUTL1W |
| Aircraft | A21N/M-SDE2E3FGHIRWXY/LB1 |
Departure
| Time | 2026-05-06 14:40 |
|---|---|
| Airport | Treviso Airport (LIPH) |
Arrival
| Time | 2026-05-06 15:50 |
|---|---|
| Airport | Stuttgart Airport (EDDS) |
| Time | Latitude | Longitude | Altitude | Speed | Heading |
|---|---|---|---|---|---|
| 2026-05-06 14:14 | 45.65366 | 12.20383 | 49 ft | 0 kts | 339° |
| 2026-05-06 14:32 | 45.65353 | 12.20390 | 48 ft | 1 kts | 339° |
| 2026-05-06 14:32 | 45.65344 | 12.20395 | 48 ft | 2 kts | 332° |
| 2026-05-06 14:33 | 45.65333 | 12.20408 | 48 ft | 2 kts | 310° |
| 2026-05-06 14:33 | 45.65324 | 12.20426 | 48 ft | 2 kts | 292° |
| 2026-05-06 14:33 | 45.65321 | 12.20447 | 48 ft | 2 kts | 272° |
| 2026-05-06 14:33 | 45.65322 | 12.20469 | 48 ft | 1 kts | 253° |
| 2026-05-06 14:34 | 45.65324 | 12.20478 | 48 ft | 1 kts | 247° |
| 2026-05-06 14:34 | 45.65325 | 12.20481 | 48 ft | 0 kts | 248° |
| 2026-05-06 14:37 | 45.65323 | 12.20474 | 48 ft | 2 kts | 248° |
| 2026-05-06 14:37 | 45.65311 | 12.20431 | 47 ft | 7 kts | 248° |
| 2026-05-06 14:37 | 45.65281 | 12.20343 | 48 ft | 10 kts | 226° |
| 2026-05-06 14:38 | 45.65218 | 12.20286 | 48 ft | 10 kts | 208° |
| 2026-05-06 14:38 | 45.65151 | 12.20237 | 48 ft | 11 kts | 202° |
| 2026-05-06 14:38 | 45.65082 | 12.20188 | 48 ft | 11 kts | 218° |
| 2026-05-06 14:38 | 45.65038 | 12.20118 | 48 ft | 0 kts | 246° |
| 2026-05-06 14:39 | 45.65037 | 12.20118 | 48 ft | 0 kts | 246° |
| 2026-05-06 14:39 | 45.65036 | 12.20111 | 48 ft | 1 kts | 246° |
| 2026-05-06 14:39 | 45.65032 | 12.20099 | 48 ft | 1 kts | 246° |
| 2026-05-06 14:39 | 45.64987 | 12.19936 | 48 ft | 51 kts | 250° |
| 2026-05-06 14:40 | 45.64766 | 12.19097 | 51 ft | 126 kts | 249° |
| 2026-05-06 14:40 | 45.64380 | 12.17667 | 192 ft | 172 kts | 247° |
| 2026-05-06 14:40 | 45.63943 | 12.16040 | 775 ft | 182 kts | 247° |
| 2026-05-06 14:40 | 45.63470 | 12.14336 | 1376 ft | 192 kts | 245° |
| 2026-05-06 14:41 | 45.62894 | 12.12501 | 1844 ft | 211 kts | 243° |
| 2026-05-06 14:41 | 45.62239 | 12.10495 | 2185 ft | 237 kts | 244° |
| 2026-05-06 14:41 | 45.61513 | 12.08277 | 2544 ft | 260 kts | 243° |
| 2026-05-06 14:41 | 45.60743 | 12.05930 | 2919 ft | 260 kts | 244° |
| 2026-05-06 14:42 | 45.59976 | 12.03585 | 3295 ft | 261 kts | 244° |
| 2026-05-06 14:42 | 45.59213 | 12.01247 | 3669 ft | 263 kts | 244° |
| 2026-05-06 14:42 | 45.58434 | 11.98863 | 4048 ft | 264 kts | 244° |
| 2026-05-06 14:42 | 45.57666 | 11.96512 | 4420 ft | 265 kts | 244° |
| 2026-05-06 14:43 | 45.56885 | 11.94120 | 4797 ft | 267 kts | 244° |
| 2026-05-06 14:43 | 45.56095 | 11.91705 | 5113 ft | 270 kts | 244° |
| 2026-05-06 14:43 | 45.55298 | 11.89266 | 5698 ft | 273 kts | 244° |
| 2026-05-06 14:43 | 45.54503 | 11.86835 | 6362 ft | 272 kts | 244° |
| 2026-05-06 14:44 | 45.53879 | 11.84276 | 6937 ft | 276 kts | 259° |
| 2026-05-06 14:44 | 45.53823 | 11.81562 | 7493 ft | 279 kts | 275° |
| 2026-05-06 14:44 | 45.54215 | 11.78875 | 8032 ft | 282 kts | 293° |
| 2026-05-06 14:45 | 45.56838 | 11.74844 | 9195 ft | 281 kts | 323° |
| 2026-05-06 14:45 | 45.58429 | 11.73213 | 9694 ft | 284 kts | 324° |
| 2026-05-06 14:45 | 45.60051 | 11.71555 | 10147 ft | 288 kts | 324° |
| 2026-05-06 14:45 | 45.61702 | 11.69834 | 10367 ft | 300 kts | 323° |
| 2026-05-06 14:46 | 45.63384 | 11.68027 | 10574 ft | 311 kts | 321° |
| 2026-05-06 14:46 | 45.65069 | 11.66000 | 10772 ft | 321 kts | 318° |
| 2026-05-06 14:46 | 45.66743 | 11.63882 | 11020 ft | 328 kts | 318° |
| 2026-05-06 14:46 | 45.68447 | 11.61710 | 11412 ft | 329 kts | 318° |
| 2026-05-06 14:47 | 45.70153 | 11.59535 | 11821 ft | 331 kts | 318° |
| 2026-05-06 14:47 | 45.71886 | 11.57327 | 12212 ft | 332 kts | 318° |
| 2026-05-06 14:47 | 45.73601 | 11.55146 | 12592 ft | 333 kts | 318° |
| 2026-05-06 14:47 | 45.75301 | 11.52985 | 13547 ft | 311 kts | 317° |
| 2026-05-06 14:48 | 45.76706 | 11.51202 | 15356 ft | 261 kts | 315° |
| 2026-05-06 14:48 | 45.77996 | 11.49537 | 15973 ft | 255 kts | 316° |
| 2026-05-06 14:48 | 45.79356 | 11.47802 | 16242 ft | 260 kts | 316° |
| 2026-05-06 14:48 | 45.80543 | 11.46322 | 17819 ft | 202 kts | 316° |
| 2026-05-06 14:49 | 45.81494 | 11.45156 | 18468 ft | 189 kts | 315° |
| 2026-05-06 14:49 | 45.82616 | 11.43740 | 17935 ft | 236 kts | 314° |
| 2026-05-06 14:49 | 45.83822 | 11.42110 | 18419 ft | 238 kts | 313° |
| 2026-05-06 14:49 | 45.85006 | 11.40506 | 18925 ft | 243 kts | 315° |
| 2026-05-06 14:50 | 45.86310 | 11.38846 | 19194 ft | 257 kts | 316° |
| 2026-05-06 14:50 | 45.87688 | 11.37106 | 19466 ft | 271 kts | 316° |
| 2026-05-06 14:50 | 45.89144 | 11.35259 | 19737 ft | 286 kts | 316° |
| 2026-05-06 14:50 | 45.90639 | 11.33354 | 20003 ft | 300 kts | 315° |
| 2026-05-06 14:51 | 45.92237 | 11.31311 | 20269 ft | 314 kts | 315° |
| 2026-05-06 14:51 | 45.93907 | 11.29171 | 20528 ft | 328 kts | 315° |
| 2026-05-06 14:51 | 45.95643 | 11.26943 | 20778 ft | 342 kts | 315° |
| 2026-05-06 14:51 | 45.97358 | 11.24527 | 21014 ft | 353 kts | 309° |
| 2026-05-06 14:52 | 45.98939 | 11.21788 | 21250 ft | 365 kts | 307° |
| 2026-05-06 14:52 | 46.00564 | 11.18863 | 21474 ft | 378 kts | 307° |
| 2026-05-06 14:52 | 46.02223 | 11.15888 | 21688 ft | 389 kts | 307° |
| 2026-05-06 14:52 | 46.03937 | 11.12836 | 21951 ft | 398 kts | 307° |
| 2026-05-06 14:53 | 46.05694 | 11.09728 | 22428 ft | 401 kts | 307° |
| 2026-05-06 14:53 | 46.07456 | 11.06617 | 22975 ft | 402 kts | 308° |
| 2026-05-06 14:53 | 46.09215 | 11.03518 | 23481 ft | 403 kts | 308° |
| 2026-05-06 14:53 | 46.10982 | 11.00404 | 23943 ft | 405 kts | 308° |
| 2026-05-06 14:54 | 46.12746 | 10.97295 | 24363 ft | 407 kts | 308° |
| 2026-05-06 14:54 | 46.14542 | 10.94129 | 24760 ft | 410 kts | 308° |
| 2026-05-06 14:54 | 46.16326 | 10.90981 | 25137 ft | 412 kts | 308° |
| 2026-05-06 14:54 | 46.18148 | 10.87764 | 25502 ft | 414 kts | 308° |
| 2026-05-06 14:55 | 46.19962 | 10.84556 | 25841 ft | 417 kts | 308° |
| 2026-05-06 14:55 | 46.21804 | 10.81296 | 26167 ft | 414 kts | 308° |
| 2026-05-06 14:55 | 46.23608 | 10.78101 | 26412 ft | 417 kts | 308° |
| 2026-05-06 14:55 | 46.25428 | 10.74872 | 26754 ft | 417 kts | 308° |
| 2026-05-06 14:56 | 46.27268 | 10.71602 | 27197 ft | 414 kts | 308° |
| 2026-05-06 14:56 | 46.29057 | 10.68422 | 27637 ft | 412 kts | 308° |
| 2026-05-06 14:56 | 46.30849 | 10.65232 | 28053 ft | 410 kts | 308° |
| 2026-05-06 14:56 | 46.32648 | 10.62025 | 28456 ft | 408 kts | 308° |
| 2026-05-06 14:57 | 46.34408 | 10.58885 | 28835 ft | 406 kts | 308° |
| 2026-05-06 14:57 | 46.36176 | 10.55725 | 29207 ft | 405 kts | 308° |
| 2026-05-06 14:57 | 46.37936 | 10.52576 | 29583 ft | 403 kts | 308° |
| 2026-05-06 14:57 | 46.39700 | 10.49419 | 29957 ft | 401 kts | 308° |
| 2026-05-06 14:58 | 46.41451 | 10.46280 | 30319 ft | 399 kts | 308° |
| 2026-05-06 14:58 | 46.43183 | 10.43172 | 30665 ft | 397 kts | 308° |
| 2026-05-06 14:58 | 46.44904 | 10.40081 | 30988 ft | 396 kts | 308° |
| 2026-05-06 14:58 | 46.46605 | 10.37021 | 31303 ft | 394 kts | 308° |
| 2026-05-06 14:59 | 46.48311 | 10.33950 | 31619 ft | 393 kts | 308° |
| 2026-05-06 14:59 | 46.49976 | 10.30946 | 31924 ft | 391 kts | 308° |
| 2026-05-06 14:59 | 46.51665 | 10.27899 | 32222 ft | 390 kts | 308° |
| 2026-05-06 14:59 | 46.53351 | 10.24854 | 32509 ft | 388 kts | 308° |
| 2026-05-06 15:00 | 46.55052 | 10.21777 | 32785 ft | 387 kts | 308° |
| 2026-05-06 15:00 | 46.56721 | 10.18755 | 33052 ft | 386 kts | 308° |
| 2026-05-06 15:00 | 46.58394 | 10.15722 | 33309 ft | 385 kts | 308° |
| 2026-05-06 15:00 | 46.60041 | 10.12735 | 33556 ft | 383 kts | 308° |
| 2026-05-06 15:01 | 46.61699 | 10.09723 | 33794 ft | 382 kts | 308° |
| 2026-05-06 15:01 | 46.63366 | 10.06691 | 34020 ft | 381 kts | 308° |
| 2026-05-06 15:01 | 46.65019 | 10.03683 | 34210 ft | 381 kts | 308° |
| 2026-05-06 15:01 | 46.66651 | 10.00711 | 34362 ft | 381 kts | 308° |
| 2026-05-06 15:02 | 46.68304 | 9.97696 | 34499 ft | 382 kts | 308° |
| 2026-05-06 15:02 | 46.69963 | 9.94668 | 34627 ft | 383 kts | 308° |
| 2026-05-06 15:02 | 46.71614 | 9.91648 | 34758 ft | 383 kts | 308° |
| 2026-05-06 15:02 | 46.73242 | 9.88669 | 34881 ft | 384 kts | 308° |
| 2026-05-06 15:03 | 46.74903 | 9.85626 | 35011 ft | 384 kts | 308° |
| 2026-05-06 15:03 | 46.76575 | 9.82562 | 35132 ft | 385 kts | 308° |
| 2026-05-06 15:03 | 46.78223 | 9.79534 | 35244 ft | 385 kts | 308° |
| 2026-05-06 15:03 | 46.79894 | 9.76462 | 35357 ft | 385 kts | 308° |
| 2026-05-06 15:04 | 46.81556 | 9.73402 | 35464 ft | 386 kts | 308° |
| 2026-05-06 15:04 | 46.84877 | 9.67277 | 35657 ft | 387 kts | 308° |
| 2026-05-06 15:04 | 46.86549 | 9.64192 | 35762 ft | 387 kts | 308° |
| 2026-05-06 15:05 | 46.88207 | 9.61128 | 35858 ft | 387 kts | 308° |
| 2026-05-06 15:05 | 46.91523 | 9.54983 | 35892 ft | 386 kts | 308° |
| 2026-05-06 15:06 | 46.94824 | 9.48858 | 35891 ft | 383 kts | 308° |
| 2026-05-06 15:06 | 46.98119 | 9.42728 | 35883 ft | 380 kts | 308° |
| 2026-05-06 15:07 | 47.01609 | 9.37013 | 35873 ft | 378 kts | 316° |
| 2026-05-06 15:07 | 47.05780 | 9.32383 | 35863 ft | 379 kts | 324° |
| 2026-05-06 15:08 | 47.10512 | 9.29019 | 35856 ft | 385 kts | 334° |
| 2026-05-06 15:08 | 47.15673 | 9.27025 | 35854 ft | 392 kts | 342° |
| 2026-05-06 15:09 | 47.20985 | 9.25587 | 35852 ft | 393 kts | 342° |
| 2026-05-06 15:09 | 47.26333 | 9.24175 | 35852 ft | 393 kts | 342° |
| 2026-05-06 15:10 | 47.31645 | 9.22771 | 35852 ft | 393 kts | 342° |
| 2026-05-06 15:10 | 47.36962 | 9.21362 | 35849 ft | 393 kts | 342° |
| 2026-05-06 15:11 | 47.42334 | 9.19918 | 35846 ft | 392 kts | 341° |
| 2026-05-06 15:11 | 47.47603 | 9.18272 | 35848 ft | 391 kts | 341° |
| 2026-05-06 15:12 | 47.52927 | 9.16583 | 35853 ft | 391 kts | 341° |
| 2026-05-06 15:12 | 47.58221 | 9.14919 | 35859 ft | 391 kts | 341° |
| 2026-05-06 15:13 | 47.63659 | 9.14070 | 35861 ft | 405 kts | 355° |
| 2026-05-06 15:13 | 47.66445 | 9.14579 | 35656 ft | 415 kts | 3° |
| 2026-05-06 15:13 | 47.69241 | 9.15781 | 35058 ft | 430 kts | 12° |
| 2026-05-06 15:13 | 47.71962 | 9.17735 | 34201 ft | 447 kts | 21° |
| 2026-05-06 15:14 | 47.74573 | 9.20338 | 33300 ft | 458 kts | 26° |
| 2026-05-06 15:14 | 47.77152 | 9.23131 | 32420 ft | 463 kts | 27° |
| 2026-05-06 15:14 | 47.79728 | 9.25939 | 31580 ft | 464 kts | 25° |
| 2026-05-06 15:14 | 47.82462 | 9.28300 | 30821 ft | 453 kts | 16° |
| 2026-05-06 15:15 | 47.85350 | 9.29936 | 30022 ft | 444 kts | 7° |
| 2026-05-06 15:15 | 47.88326 | 9.30850 | 29165 ft | 437 kts | 359° |
| 2026-05-06 15:15 | 47.91345 | 9.31197 | 28331 ft | 435 kts | 355° |
| 2026-05-06 15:15 | 47.94343 | 9.31393 | 27613 ft | 434 kts | 354° |
| 2026-05-06 15:16 | 47.97329 | 9.31568 | 26945 ft | 432 kts | 354° |
| 2026-05-06 15:16 | 48.00313 | 9.31750 | 26291 ft | 431 kts | 355° |
| 2026-05-06 15:16 | 48.03312 | 9.31944 | 25626 ft | 430 kts | 355° |
| 2026-05-06 15:16 | 48.06252 | 9.32142 | 25059 ft | 427 kts | 355° |
| 2026-05-06 15:17 | 48.09197 | 9.32348 | 24659 ft | 425 kts | 355° |
| 2026-05-06 15:17 | 48.12088 | 9.32550 | 24253 ft | 423 kts | 355° |
| 2026-05-06 15:17 | 48.14976 | 9.32753 | 23841 ft | 421 kts | 355° |
| 2026-05-06 15:17 | 48.17909 | 9.33075 | 23394 ft | 422 kts | 358° |
| 2026-05-06 15:18 | 48.20771 | 9.33516 | 22983 ft | 421 kts | 358° |
| 2026-05-06 15:18 | 48.23634 | 9.33987 | 22559 ft | 418 kts | 359° |
| 2026-05-06 15:18 | 48.26480 | 9.34460 | 22129 ft | 415 kts | 359° |
| 2026-05-06 15:18 | 48.29335 | 9.34930 | 21693 ft | 412 kts | 359° |
| 2026-05-06 15:19 | 48.32152 | 9.35390 | 21264 ft | 409 kts | 359° |
| 2026-05-06 15:19 | 48.34904 | 9.35698 | 20823 ft | 403 kts | 354° |
| 2026-05-06 15:19 | 48.37682 | 9.35593 | 20378 ft | 399 kts | 348° |
| 2026-05-06 15:19 | 48.40381 | 9.35067 | 19838 ft | 393 kts | 343° |
| 2026-05-06 15:20 | 48.43021 | 9.34274 | 19264 ft | 390 kts | 341° |
| 2026-05-06 15:20 | 48.45670 | 9.33410 | 18739 ft | 387 kts | 341° |
| 2026-05-06 15:20 | 48.48251 | 9.32565 | 18247 ft | 384 kts | 341° |
| 2026-05-06 15:20 | 48.50836 | 9.31728 | 17761 ft | 381 kts | 341° |
| 2026-05-06 15:21 | 48.53390 | 9.30909 | 17279 ft | 378 kts | 341° |
| 2026-05-06 15:21 | 48.55938 | 9.30131 | 16793 ft | 378 kts | 345° |
| 2026-05-06 15:21 | 48.58571 | 9.30188 | 16299 ft | 390 kts | 4° |
| 2026-05-06 15:21 | 48.61146 | 9.31622 | 15785 ft | 403 kts | 25° |
| 2026-05-06 15:22 | 48.63283 | 9.34364 | 15290 ft | 413 kts | 46° |
| 2026-05-06 15:22 | 48.64702 | 9.38158 | 14790 ft | 419 kts | 66° |
| 2026-05-06 15:22 | 48.65610 | 9.42358 | 14291 ft | 419 kts | 71° |
| 2026-05-06 15:22 | 48.66419 | 9.46581 | 13783 ft | 418 kts | 71° |
| 2026-05-06 15:23 | 48.67244 | 9.50749 | 13283 ft | 415 kts | 70° |
| 2026-05-06 15:23 | 48.68105 | 9.54883 | 12785 ft | 413 kts | 70° |
| 2026-05-06 15:23 | 48.68964 | 9.59047 | 12281 ft | 411 kts | 71° |
| 2026-05-06 15:23 | 48.69744 | 9.63146 | 11775 ft | 410 kts | 72° |
| 2026-05-06 15:24 | 48.70481 | 9.67120 | 11283 ft | 408 kts | 73° |
| 2026-05-06 15:24 | 48.71191 | 9.70991 | 10980 ft | 399 kts | 73° |
| 2026-05-06 15:24 | 48.71932 | 9.75037 | 10732 ft | 388 kts | 73° |
| 2026-05-06 15:24 | 48.72634 | 9.78881 | 10571 ft | 376 kts | 73° |
| 2026-05-06 15:25 | 48.73313 | 9.82601 | 10395 ft | 364 kts | 73° |
| 2026-05-06 15:25 | 48.74006 | 9.86282 | 10208 ft | 353 kts | 69° |
| 2026-05-06 15:25 | 48.75186 | 9.89370 | 9981 ft | 335 kts | 41° |
| 2026-05-06 15:25 | 48.77062 | 9.91186 | 9811 ft | 309 kts | 10° |
| 2026-05-06 15:26 | 48.79097 | 9.91483 | 9548 ft | 291 kts | 352° |
| 2026-05-06 15:26 | 48.81108 | 9.91346 | 9248 ft | 286 kts | 352° |
| 2026-05-06 15:26 | 48.83062 | 9.91210 | 8949 ft | 281 kts | 352° |
| 2026-05-06 15:26 | 48.84987 | 9.90986 | 8639 ft | 273 kts | 342° |
| 2026-05-06 15:27 | 48.86619 | 9.89730 | 8320 ft | 260 kts | 313° |
| 2026-05-06 15:27 | 48.87735 | 9.87607 | 8027 ft | 257 kts | 296° |
| 2026-05-06 15:27 | 48.88256 | 9.85065 | 7724 ft | 256 kts | 274° |
| 2026-05-06 15:27 | 48.88020 | 9.82376 | 7421 ft | 259 kts | 251° |
| 2026-05-06 15:28 | 48.87052 | 9.80078 | 7121 ft | 266 kts | 227° |
| 2026-05-06 15:28 | 48.85480 | 9.78535 | 6824 ft | 273 kts | 208° |
| 2026-05-06 15:28 | 48.83736 | 9.77455 | 6528 ft | 273 kts | 205° |
| 2026-05-06 15:28 | 48.81962 | 9.76423 | 6227 ft | 272 kts | 205° |
| 2026-05-06 15:29 | 48.80233 | 9.75368 | 5922 ft | 269 kts | 213° |
| 2026-05-06 15:29 | 48.78855 | 9.73549 | 5612 ft | 260 kts | 239° |
| 2026-05-06 15:29 | 48.78066 | 9.71117 | 5318 ft | 256 kts | 255° |
| 2026-05-06 15:29 | 48.77632 | 9.68499 | 5019 ft | 255 kts | 259° |
| 2026-05-06 15:30 | 48.77256 | 9.65901 | 4721 ft | 254 kts | 258° |
| 2026-05-06 15:30 | 48.76839 | 9.63309 | 4420 ft | 254 kts | 257° |
| 2026-05-06 15:30 | 48.76382 | 9.60723 | 4120 ft | 254 kts | 256° |
| 2026-05-06 15:30 | 48.75898 | 9.58141 | 3819 ft | 253 kts | 255° |
| 2026-05-06 15:31 | 48.75407 | 9.55609 | 3518 ft | 249 kts | 254° |
| 2026-05-06 15:31 | 48.74917 | 9.53106 | 3215 ft | 246 kts | 255° |
| 2026-05-06 15:31 | 48.74435 | 9.50634 | 2949 ft | 241 kts | 253° |
| 2026-05-06 15:32 | 48.73490 | 9.45744 | 3082 ft | 259 kts | 255° |
| 2026-05-06 15:32 | 48.72981 | 9.43117 | 4057 ft | 269 kts | 255° |
| 2026-05-06 15:32 | 48.72472 | 9.40456 | 4694 ft | 265 kts | 254° |
| 2026-05-06 15:32 | 48.71938 | 9.37676 | 5071 ft | 288 kts | 253° |
| 2026-05-06 15:33 | 48.71342 | 9.34598 | 5154 ft | 321 kts | 252° |
| 2026-05-06 15:33 | 48.70719 | 9.31389 | 5154 ft | 310 kts | 254° |
| 2026-05-06 15:33 | 48.70132 | 9.28322 | 5165 ft | 291 kts | 255° |
| 2026-05-06 15:33 | 48.69608 | 9.25485 | 5168 ft | 274 kts | 252° |
| 2026-05-06 15:34 | 48.69091 | 9.22789 | 5173 ft | 257 kts | 252° |
| 2026-05-06 15:34 | 48.68621 | 9.20273 | 5177 ft | 241 kts | 253° |
| 2026-05-06 15:34 | 48.68165 | 9.17911 | 5176 ft | 226 kts | 253° |
| 2026-05-06 15:34 | 48.67725 | 9.15630 | 5182 ft | 228 kts | 256° |
| 2026-05-06 15:35 | 48.67299 | 9.13327 | 5187 ft | 228 kts | 253° |
| 2026-05-06 15:35 | 48.66874 | 9.11003 | 5185 ft | 230 kts | 252° |
| 2026-05-06 15:35 | 48.66472 | 9.08663 | 5188 ft | 230 kts | 253° |
| 2026-05-06 15:35 | 48.66071 | 9.06316 | 5188 ft | 228 kts | 255° |
| 2026-05-06 15:36 | 48.65880 | 9.03937 | 5177 ft | 231 kts | 274° |
| 2026-05-06 15:36 | 48.66397 | 9.01612 | 5184 ft | 238 kts | 300° |
| 2026-05-06 15:36 | 48.67558 | 8.99846 | 5178 ft | 244 kts | 326° |
| 2026-05-06 15:36 | 48.69131 | 8.98873 | 5194 ft | 243 kts | 339° |
| 2026-05-06 15:37 | 48.70745 | 8.98143 | 5196 ft | 241 kts | 341° |
| 2026-05-06 15:37 | 48.72352 | 8.97480 | 5185 ft | 239 kts | 346° |
| 2026-05-06 15:37 | 48.74050 | 8.97294 | 5186 ft | 253 kts | 1° |
| 2026-05-06 15:37 | 48.75751 | 8.97945 | 5175 ft | 254 kts | 27° |
| 2026-05-06 15:38 | 48.77053 | 8.99750 | 5182 ft | 259 kts | 55° |
| 2026-05-06 15:38 | 48.77956 | 9.02104 | 5189 ft | 260 kts | 62° |
| 2026-05-06 15:38 | 48.78797 | 9.04540 | 5191 ft | 259 kts | 60° |
| 2026-05-06 15:38 | 48.79675 | 9.06900 | 5190 ft | 259 kts | 57° |
| 2026-05-06 15:39 | 48.80605 | 9.09216 | 5188 ft | 259 kts | 57° |
| 2026-05-06 15:39 | 48.81570 | 9.11531 | 5188 ft | 260 kts | 57° |
| 2026-05-06 15:39 | 48.82551 | 9.13855 | 5189 ft | 259 kts | 54° |
| 2026-05-06 15:39 | 48.83530 | 9.16135 | 5186 ft | 258 kts | 54° |
| 2026-05-06 15:40 | 48.84506 | 9.18388 | 5187 ft | 256 kts | 53° |
| 2026-05-06 15:40 | 48.85494 | 9.20633 | 5185 ft | 258 kts | 55° |
| 2026-05-06 15:40 | 48.86412 | 9.22971 | 5174 ft | 258 kts | 72° |
| 2026-05-06 15:40 | 48.86533 | 9.25615 | 5175 ft | 250 kts | 107° |
| 2026-05-06 15:41 | 48.85912 | 9.28127 | 5193 ft | 257 kts | 115° |
| 2026-05-06 15:41 | 48.85166 | 9.30597 | 5190 ft | 258 kts | 115° |
| 2026-05-06 15:41 | 48.84464 | 9.33104 | 5190 ft | 253 kts | 115° |
| 2026-05-06 15:41 | 48.83817 | 9.35576 | 5191 ft | 251 kts | 114° |
| 2026-05-06 15:42 | 48.83213 | 9.38020 | 5182 ft | 249 kts | 111° |
| 2026-05-06 15:42 | 48.82609 | 9.40531 | 5179 ft | 252 kts | 111° |
| 2026-05-06 15:42 | 48.82011 | 9.43048 | 5173 ft | 258 kts | 110° |
| 2026-05-06 15:42 | 48.81421 | 9.45611 | 5163 ft | 260 kts | 110° |
| 2026-05-06 15:43 | 48.80826 | 9.48208 | 5148 ft | 260 kts | 110° |
| 2026-05-06 15:43 | 48.80226 | 9.50802 | 5132 ft | 260 kts | 110° |
| 2026-05-06 15:43 | 48.79630 | 9.53387 | 5109 ft | 260 kts | 110° |
| 2026-05-06 15:43 | 48.79026 | 9.55981 | 5080 ft | 261 kts | 110° |
| 2026-05-06 15:44 | 48.78423 | 9.58568 | 5054 ft | 262 kts | 110° |
| 2026-05-06 15:44 | 48.77676 | 9.61098 | 5019 ft | 260 kts | 129° |
| 2026-05-06 15:44 | 48.76358 | 9.62842 | 5011 ft | 252 kts | 159° |
| 2026-05-06 15:44 | 48.74692 | 9.63328 | 5006 ft | 241 kts | 192° |
| 2026-05-06 15:45 | 48.73188 | 9.62473 | 5005 ft | 231 kts | 220° |
| 2026-05-06 15:45 | 48.72176 | 9.60623 | 5009 ft | 234 kts | 248° |
| 2026-05-06 15:45 | 48.71885 | 9.58273 | 5000 ft | 227 kts | 275° |
| 2026-05-06 15:45 | 48.72363 | 9.55995 | 5008 ft | 229 kts | 295° |
| 2026-05-06 15:46 | 48.73140 | 9.53890 | 5006 ft | 229 kts | 297° |
| 2026-05-06 15:46 | 48.73873 | 9.51779 | 4969 ft | 228 kts | 284° |
| 2026-05-06 15:46 | 48.74015 | 9.49407 | 4664 ft | 227 kts | 262° |
| 2026-05-06 15:46 | 48.73713 | 9.47059 | 4289 ft | 228 kts | 256° |
| 2026-05-06 15:47 | 48.73302 | 9.44743 | 3985 ft | 227 kts | 253° |
| 2026-05-06 15:47 | 48.72865 | 9.42477 | 3685 ft | 224 kts | 253° |
| 2026-05-06 15:47 | 48.72425 | 9.40218 | 3395 ft | 218 kts | 253° |
| 2026-05-06 15:47 | 48.72021 | 9.38124 | 3231 ft | 197 kts | 253° |
| 2026-05-06 15:48 | 48.71651 | 9.36188 | 2943 ft | 189 kts | 253° |
| 2026-05-06 15:48 | 48.71293 | 9.34312 | 2656 ft | 175 kts | 253° |
| 2026-05-06 15:48 | 48.70972 | 9.32630 | 2389 ft | 158 kts | 253° |
| 2026-05-06 15:48 | 48.70683 | 9.31111 | 2139 ft | 143 kts | 253° |
| 2026-05-06 15:49 | 48.70422 | 9.29710 | 1925 ft | 139 kts | 253° |
| 2026-05-06 15:49 | 48.70140 | 9.28311 | 1774 ft | 139 kts | 251° |
| 2026-05-06 15:49 | 48.69866 | 9.26895 | 1644 ft | 140 kts | 253° |
| 2026-05-06 15:49 | 48.69611 | 9.25489 | 1478 ft | 139 kts | 253° |
| 2026-05-06 15:50 | 48.69346 | 9.24062 | 1325 ft | 139 kts | 253° |
| 2026-05-06 15:50 | 48.69082 | 9.22724 | 1284 ft | 117 kts | 257° |
| 2026-05-06 15:50 | 48.68904 | 9.21781 | 1284 ft | 68 kts | 256° |
| 2026-05-06 15:50 | 48.68812 | 9.21282 | 1284 ft | 40 kts | 254° |
| 2026-05-06 15:51 | 48.68743 | 9.20907 | 1284 ft | 33 kts | 256° |
| 2026-05-06 15:51 | 48.68690 | 9.20616 | 1284 ft | 25 kts | 253° |
| 2026-05-06 15:51 | 48.68678 | 9.20413 | 1284 ft | 17 kts | 277° |
| 2026-05-06 15:51 | 48.68693 | 9.20238 | 1284 ft | 16 kts | 279° |
| 2026-05-06 15:52 | 48.68713 | 9.20123 | 1284 ft | 2 kts | 291° |
| 2026-05-06 15:52 | 48.68719 | 9.20104 | 1284 ft | 0 kts | 291° |
| 2026-05-06 15:52 | 48.68721 | 9.20094 | 1284 ft | 1 kts | 291° |
| 2026-05-06 15:52 | 48.68723 | 9.20087 | 1284 ft | 0 kts | 291° |
| 2026-05-06 15:53 | 48.68743 | 9.20039 | 1284 ft | 9 kts | 304° |
| 2026-05-06 15:53 | 48.68795 | 9.19947 | 1284 ft | 12 kts | 315° |
| 2026-05-06 15:53 | 48.68855 | 9.19858 | 1284 ft | 11 kts | 317° |
| 2026-05-06 15:53 | 48.68913 | 9.19867 | 1284 ft | 10 kts | 58° |
| 2026-05-06 15:54 | 48.68953 | 9.19961 | 1284 ft | 10 kts | 55° |
| 2026-05-06 15:54 | 48.68993 | 9.20066 | 1284 ft | 12 kts | 66° |
| 2026-05-06 15:54 | 48.69015 | 9.20180 | 1284 ft | 10 kts | 74° |
| 2026-05-06 15:54 | 48.69036 | 9.20296 | 1284 ft | 11 kts | 74° |
| 2026-05-06 15:55 | 48.69049 | 9.20369 | 1284 ft | 4 kts | 86° |
| 2026-05-06 15:55 | 48.69021 | 9.20401 | 1284 ft | 6 kts | 163° |
| 2026-05-06 15:55 | 48.68986 | 9.20416 | 1284 ft | 0 kts | 163° |